Latest Weather Observations for Redcliffe

IDQ60901

Issued at 7:41 pm EST Tuesday 23 October 2018 (issued every 10 minutes, with the page automatically refreshed every 10 minutes)

About weather observations | Map of Brisbane area stations | Latest observations for Brisbane area | Other Formats
Station Details ID: 040958 Name: REDCLIFFE Lat: -27.22 Lon: 153.09 Height: 12.6 m
Data from the previous 72 hours. | See also: Recent months at Redcliffe
Date/Time
EST
Temp
°C
App
Temp
°C
Dew
Point
°C
Rel
Hum
%
Delta-T
°C
Wind Press
QNH
hPa
Press
MSL
hPa
Rain since
9am
mm
Dir  Spd
km/h
Gust
km/h
Spd
kts
Gust
kts
23/07:30pm 22.5 21.6 17.8 75 2.9 NE 19 22 10 12 1016.0 1015.9 0.0
23/07:00pm 22.6 21.8 17.9 75 2.9 NE 19 22 10 12 1015.6 1015.5 0.0
23/06:30pm 22.8 21.9 18.1 75 2.9 NE 20 24 11 13 1015.2 1015.1 0.0
23/06:00pm 22.9 21.9 18.0 74 3.1 NNE 20 24 11 13 1014.8 1014.7 0.0
23/05:30pm 23.3 22.3 18.0 72 3.3 NNE 20 24 11 13 1014.5 1014.4 0.0
23/05:00pm 23.8 22.8 18.0 70 3.6 NE 20 26 11 14 1014.2 1014.1 0.0
23/04:30pm 24.3 23.7 18.5 70 3.7 ENE 19 20 10 11 1013.9 1013.8 0.0
23/04:00pm 24.9 24.8 18.8 69 3.9 NE 17 20 9 11 1013.7 1013.6 0.0
23/03:30pm 25.6 25.0 18.8 66 4.3 NE 20 24 11 13 1013.7 1013.6 0.0
23/03:00pm 24.9 24.5 18.8 69 3.9 NE 19 20 10 11 1013.8 1013.7 0.0
23/02:30pm 24.8 24.0 18.0 66 4.3 ENE 19 20 10 11 1014.0 1013.9 0.0
23/02:00pm 25.2 24.3 17.7 63 4.7 ENE 19 22 10 12 1014.3 1014.2 0.0
23/01:30pm 25.6 24.5 17.3 60 5.2 ENE 19 20 10 11 1014.7 1014.6 0.0
23/01:00pm 25.4 24.2 17.1 60 5.2 ENE 19 19 10 10 1015.2 1015.1 0.0
23/12:30pm 25.9 25.4 17.8 61 5.1 ENE 17 19 9 10 1015.6 1015.5 0.0
23/12:00pm 25.4 24.1 15.7 55 5.9 E 17 20 9 11 1015.9 1015.8 0.0
23/11:30am 25.5 25.5 17.2 60 5.2 E 13 17 7 9 1016.3 1016.2 0.0
23/11:00am 25.0 25.0 17.2 62 4.8 E 13 15 7 8 1016.7 1016.6 0.0
23/10:30am 24.8 24.8 17.3 63 4.7 ESE 13 13 7 7 1017.1 1017.0 0.0
23/10:00am 25.1 25.1 17.3 62 4.8 SE 13 15 7 8 1017.4 1017.3 0.0
23/09:30am 25.0 25.6 17.7 64 4.6 SE 11 13 6 7 1017.4 1017.3 0.0
23/09:00am 25.1 25.3 17.6 63 4.7 SSE 13 13 7 7 1017.4 1017.3 0.0
23/08:30am 24.3 24.1 17.5 66 4.2 S 15 17 8 9 1017.4 1017.3 0.0
23/08:00am 24.1 23.5 17.6 67 4.0 S 17 20 9 11 1017.3 1017.2 0.0
23/07:30am 22.9 22.1 16.0 65 4.2 SSW 15 17 8 9 1017.2 1017.1 0.0
23/07:00am 22.3 21.8 17.0 72 3.2 SSW 15 20 8 11 1016.9 1016.8 0.0
23/06:30am 21.0 19.9 16.4 75 2.8 SSW 17 20 9 11 1016.8 1016.7 0.0
23/06:00am 19.7 19.0 16.5 82 1.9 SSW 15 19 8 10 1016.5 1016.4 0.0
23/05:30am 18.8 18.9 16.4 86 1.4 SW 11 15 6 8 1016.1 1016.0 0.0
23/05:00am 18.8 19.3 16.6 87 1.3 SW 9 15 5 8 1015.8 1015.7 0.0
23/04:30am 18.7 18.8 16.5 87 1.3 SW 11 15 6 8 1015.5 1015.4 0.0
23/04:00am 19.1 19.7 16.9 87 1.3 SW 9 11 5 6 1015.3 1015.2 0.0
23/03:30am 19.3 20.0 17.1 87 1.3 SW 9 11 5 6 1015.3 1015.2 0.0
23/03:00am 19.4 19.7 17.0 86 1.5 SSW 11 17 6 9 1015.2 1015.1 0.0
23/02:30am 19.7 19.7 17.1 85 1.6 SSW 13 19 7 10 1015.3 1015.2 0.0
23/02:00am 19.8 19.9 17.4 86 1.5 SSW 13 15 7 8 1015.4 1015.3 0.0
23/01:30am 20.2 19.9 17.4 84 1.7 S 15 19 8 10 1015.7 1015.6 0.0
23/01:00am 20.5 21.0 17.5 83 1.8 SW 11 15 6 8 1015.9 1015.8 0.0
23/12:30am 21.0 21.6 17.6 81 2.1 SW 11 15 6 8 1016.2 1016.1 0.0
23/12:00am 21.5 21.0 17.7 79 2.3 SSE 17 19 9 10 1016.4 1016.3 0.0
 
Date/Time
EST
Temp
°C
App
Temp
°C
Dew
Point
°C
Rel
Hum
%
Delta-T
°C
Wind Press
QNH
hPa
Press
MSL
hPa
Rain since
9am
mm
Dir  Spd
km/h
Gust
km/h
Spd
kts
Gust
kts
22/11:30pm 21.5 21.0 17.7 79 2.3 SE 17 19 9 10 1016.6 1016.5 0.0
22/11:00pm 21.7 21.2 17.7 78 2.5 SE 17 20 9 11 1016.6 1016.5 0.0
22/10:30pm 21.7 21.5 17.7 78 2.5 SE 15 19 8 10 1016.8 1016.7 0.0
22/10:00pm 21.8 21.6 17.6 77 2.6 SE 15 19 8 10 1016.8 1016.7 0.0
22/09:30pm 21.8 20.7 17.4 76 2.7 SE 19 22 10 12 1016.8 1016.7 0.0
22/09:00pm 21.7 20.7 17.5 77 2.6 SE 19 20 10 11 1016.9 1016.8 0.0
22/08:30pm 21.7 20.7 17.5 77 2.6 SE 19 22 10 12 1016.7 1016.6 0.0
22/08:00pm 21.9 20.7 17.5 76 2.7 SE 20 24 11 13 1016.4 1016.3 0.0
22/07:30pm 21.9 21.3 17.5 76 2.7 SE 17 22 9 12 1016.3 1016.2 0.0
22/07:00pm 22.2 20.5 17.3 74 3.0 SE 22 26 12 14 1015.9 1015.8 0.0
22/06:30pm 22.4 20.4 17.3 73 3.1 SE 24 28 13 15 1015.5 1015.4 0.0
22/06:00pm 22.7 21.0 17.2 71 3.4 SE 22 28 12 15 1015.1 1015.0 0.0
22/05:30pm 23.2 21.0 17.9 72 3.3 SE 26 30 14 16 1014.9 1014.8 0.0
22/05:00pm 23.7 20.9 17.4 68 3.9 SE 28 32 15 17 1014.5 1014.4 0.0
22/04:30pm 24.1 20.9 16.4 62 4.7 SE 28 32 15 17 1014.2 1014.1 0.0
22/04:00pm 24.4 22.5 17.6 66 4.2 SE 24 30 13 16 1014.0 1013.9 0.0
22/03:30pm 24.2 22.8 17.9 68 3.9 ESE 22 28 12 15 1014.0 1013.9 0.0
22/03:00pm 24.1 21.7 17.4 66 4.2 E 26 30 14 16 1013.9 1013.8 0.0
22/02:30pm 24.7 23.0 17.2 63 4.7 E 22 26 12 14 1014.0 1013.9 0.0
22/02:00pm 25.3 24.7 16.7 59 5.3 ENE 15 19 8 10 1014.0 1013.9 0.0
22/01:30pm 24.9 23.2 15.8 57 5.5 E 19 22 10 12 1014.3 1014.2 0.0
22/01:00pm 25.0 23.5 16.2 58 5.4 E 19 20 10 11 1014.5 1014.4 0.0
22/12:30pm 24.8 23.6 16.2 58 5.3 E 17 19 9 10 1014.8 1014.7 0.0
22/12:00pm 24.7 24.2 16.9 62 4.8 E 15 17 8 9 1015.1 1015.0 0.0
22/11:30am 25.3 25.6 18.0 64 4.6 E 13 15 7 8 1015.4 1015.3 0.0
22/11:00am 25.3 25.9 16.7 59 5.3 E 9 11 5 6 1015.9 1015.8 0.0
22/10:30am 24.1 23.9 15.6 59 5.1 ESE 11 13 6 7 1016.2 1016.1 0.0
22/10:00am 24.7 25.3 17.7 65 4.4 SE 11 13 6 7 1016.3 1016.2 0.0
22/09:30am 24.0 24.1 15.5 59 5.1 SSE 9 11 5 6 1016.5 1016.4 0.0
22/09:00am 23.2 22.3 15.8 63 4.5 S 15 17 8 9 1016.5 1016.4 18.2
22/08:30am 22.8 23.7 17.5 72 3.3 S 9 15 5 8 1016.4 1016.3 18.2
22/08:00am 21.3 21.4 16.5 74 2.9 SW 11 13 6 7 1016.5 1016.4 18.2
22/07:30am 19.9 20.3 16.2 79 2.2 WSW 9 13 5 7 1016.4 1016.3 18.2
22/07:00am 18.3 18.1 14.8 80 2.0 WSW 9 11 5 6 1016.2 1016.1 18.2
22/06:30am 16.9 16.3 14.7 87 1.3 WNW 11 13 6 7 1016.1 1016.0 18.2
22/06:00am 16.0 15.7 14.4 90 0.9 W 9 11 5 6 1016.0 1015.9 18.2
22/05:30am 15.3 14.9 14.2 93 0.6 W 9 13 5 7 1015.5 1015.4 18.2
22/05:00am 14.9 14.4 13.8 93 0.6 WSW 9 13 5 7 1015.1 1015.0 18.2
22/04:30am 14.9 14.3 13.6 92 0.7 WSW 9 11 5 6 1014.7 1014.6 18.2
22/04:00am 15.2 14.8 14.1 93 0.6 W 9 11 5 6 1014.5 1014.4 18.2
22/03:30am 15.3 14.9 14.2 93 0.6 WSW 9 11 5 6 1014.3 1014.2 18.2
22/03:00am 15.3 14.9 14.2 93 0.6 W 9 11 5 6 1014.3 1014.2 18.2
22/02:30am 15.4 14.6 14.1 92 0.7 W 11 13 6 7 1014.2 1014.1 18.0
22/02:00am 15.5 14.8 14.2 92 0.7 WNW 11 13 6 7 1014.2 1014.1 18.0
22/01:30am 15.8 15.5 14.5 92 0.7 WNW 9 11 5 6 1014.5 1014.4 18.0
22/01:00am 15.9 15.7 14.6 92 0.7 W 9 13 5 7 1014.9 1014.8 18.0
22/12:30am 16.1 15.2 14.8 92 0.7 WNW 13 15 7 8 1014.9 1014.8 18.0
22/12:00am 16.2 16.1 14.9 92 0.7 WNW 9 13 5 7 1015.1 1015.0 18.0
 
Date/Time
EST
Temp
°C
App
Temp
°C
Dew
Point
°C
Rel
Hum
%
Delta-T
°C
Wind Press
QNH
hPa
Press
MSL
hPa
Rain since
9am
mm
Dir  Spd
km/h
Gust
km/h
Spd
kts
Gust
kts
21/11:30pm 16.3 16.6 15.0 92 0.8 WNW 7 9 4 5 1015.4 1015.3 18.0
21/11:00pm 16.5 16.1 15.2 92 0.8 SW 11 13 6 7 1015.5 1015.4 18.0
21/10:30pm 16.7 16.8 15.4 92 0.8 SW 9 13 5 7 1015.6 1015.5 18.0
21/10:00pm 16.7 16.4 15.4 92 0.8 W 11 15 6 8 1015.4 1015.3 18.0
21/09:30pm 16.9 16.7 15.6 92 0.8 W 11 15 6 8 1015.7 1015.6 18.0
21/09:00pm 17.3 17.2 16.0 92 0.8 WNW 11 13 6 7 1015.5 1015.4 18.0
21/08:30pm 17.4 16.9 15.9 91 0.9 WNW 13 17 7 9 1015.2 1015.1 18.0
21/08:00pm 17.6 17.9 16.1 91 0.9 W 9 11 5 6 1015.1 1015.0 18.0
21/07:30pm 18.0 18.5 16.5 91 0.9 W 9 11 5 6 1014.8 1014.7 18.0
21/07:00pm 18.6 19.6 16.8 89 1.1 E 7 9 4 5 1014.4 1014.3 18.0
21/06:30pm 18.7 18.3 16.1 85 1.5 SE 13 17 7 9 1013.7 1013.6 18.0
21/06:00pm 18.7 18.5 16.7 88 1.2 SE 13 17 7 9 1013.6 1013.5 18.0
21/05:30pm 18.8 18.4 17.1 90 1.0 SSE 15 17 8 9 1013.7 1013.6 17.8
21/05:00pm 18.6 17.0 16.4 87 1.3 SE 20 26 11 14 1012.3 1012.2 17.8
21/04:30pm 18.1 16.5 16.6 91 0.9 S 20 26 11 14 1012.4 1012.3 17.8
21/04:00pm 17.8 17.0 16.1 90 1.0 SW 15 26 8 14 1013.1 1013.0 15.6
21/03:30pm 17.9 15.4 16.2 90 1.0 W 24 50 13 27 1013.3 1013.2 13.8
21/03:16pm 17.5 13.2 15.5 88 1.2 W 32 48 17 26 1013.3 1013.2 9.6
21/03:00pm 20.1 18.4 14.7 71 3.2 W 17 37 9 20 1011.9 1011.8 0.0
21/02:30pm 24.1 22.1 17.4 66 4.2 NE 24 30 13 16 1011.0 1010.9 0.0
21/02:00pm 24.9 21.8 17.6 64 4.6 NE 30 35 16 19 1011.0 1010.9 0.0
21/01:30pm 25.0 21.5 17.5 63 4.7 NE 32 35 17 19 1011.4 1011.3 0.0
21/01:00pm 25.5 23.6 16.6 58 5.5 NE 22 26 12 14 1012.4 1012.3 0.0
21/12:30pm 25.3 24.4 18.2 64 4.5 NE 20 26 11 14 1013.3 1013.2 0.0
21/12:00pm 25.6 25.0 15.6 54 6.1 E 13 15 7 8 1013.7 1013.6 0.0
21/11:30am 25.7 24.9 15.1 52 6.4 ENE 13 15 7 8 1014.2 1014.1 0.0
21/11:00am 26.5 26.2 17.3 57 5.8 E 15 15 8 8 1014.5 1014.4 0.0
21/10:30am 26.3 25.9 16.3 54 6.2 ENE 13 15 7 8 1014.7 1014.6 0.0
21/10:00am 26.1 25.9 16.6 55 5.9 SSE 13 15 7 8 1014.9 1014.8 0.0
21/09:30am 25.7 26.3 17.6 61 5.1 SSE 11 13 6 7 1014.8 1014.7 0.0
21/09:00am 25.1 25.9 18.1 65 4.4 NNW 11 17 6 9 1014.7 1014.6 0.0
21/08:30am 24.4 24.8 16.4 61 4.9 ENE 9 11 5 6 1014.5 1014.4 0.0
21/08:00am 23.2 24.3 16.5 66 4.1 NNE 6 6 3 3 1014.7 1014.6 0.0
21/07:30am 21.4 22.2 16.4 73 3.0 N 7 9 4 5 1014.5 1014.4 0.0
21/07:00am 20.7 20.5 16.7 78 2.4 WNW 13 19 7 10 1015.2 1015.1 0.0
21/06:30am 20.1 19.2 16.9 82 1.9 W 17 26 9 14 1015.6 1015.5 0.0
21/06:00am 19.6 18.7 16.8 84 1.7 W 17 22 9 12 1014.7 1014.6 0.0
21/05:30am 20.4 19.4 16.6 79 2.3 W 17 33 9 18 1014.0 1013.9 0.0
21/05:26am 20.6 19.2 16.6 78 2.4 WNW 19 33 10 18 1014.0 1013.9 0.0
21/05:00am 20.9 17.5 16.7 77 2.5 NE 30 37 16 20 1012.0 1011.9 0.0
21/04:51am 20.7 18.1 16.9 79 2.3 NE 26 37 14 20 1012.0 1011.9 0.0
21/04:30am 20.3 20.7 17.3 83 1.8 NE 11 15 6 8 1013.7 1013.6 0.0
21/04:00am 19.5 21.3 16.5 83 1.8 N 2 7 1 4 1014.3 1014.2 0.0
21/03:30am 19.5 20.2 16.2 81 2.0 NW 7 11 4 6 1014.9 1014.8 0.0
21/03:00am 19.6 19.6 16.3 81 2.0 WNW 11 13 6 7 1014.9 1014.8 0.0
21/02:30am 20.0 20.1 16.4 80 2.2 WNW 11 13 6 7 1014.9 1014.8 0.0
21/02:00am 19.6 21.1 16.6 83 1.8 WNW 4 9 2 5 1014.9 1014.8 0.0
21/01:30am 19.6 19.7 16.4 82 1.9 WNW 11 15 6 8 1015.2 1015.1 0.0
21/01:00am 19.8 20.0 16.8 83 1.8 NNW 11 15 6 8 1015.1 1015.0 0.0
21/12:30am 20.3 20.6 16.9 81 2.1 NW 11 15 6 8 1015.3 1015.2 0.0
21/12:00am 20.6 21.0 17.2 81 2.1 NW 11 17 6 9 1015.5 1015.4 0.0
 
Date/Time
EST
Temp
°C
App
Temp
°C
Dew
Point
°C
Rel
Hum
%
Delta-T
°C
Wind Press
QNH
hPa
Press
MSL
hPa
Rain since
9am
mm
Dir  Spd
km/h
Gust
km/h
Spd
kts
Gust
kts
20/11:30pm 20.5 20.5 17.3 82 2.0 N 13 17 7 9 1015.0 1014.9 0.0
20/11:00pm 21.0 21.1 17.4 80 2.2 NNW 13 19 7 10 1015.3 1015.2 0.0
20/10:30pm 21.3 20.1 17.5 79 2.3 N 20 28 11 15 1015.3 1015.2 0.0
20/10:00pm 21.5 20.2 17.3 77 2.6 NNE 20 26 11 14 1015.4 1015.3 0.0
20/09:30pm 21.6 20.8 17.0 75 2.8 N 17 22 9 12 1015.8 1015.7 0.0
20/09:00pm 21.6 20.0 16.6 73 3.0 NNE 20 24 11 13 1015.8 1015.7 0.0
20/08:30pm 21.7 19.9 16.9 74 2.9 NNE 22 26 12 14 1015.8 1015.7 0.0
20/08:00pm 21.7 19.7 16.4 72 3.2 NNE 22 28 12 15 1015.9 1015.8 0.0

Latest Capital City Observations: Canberra | Sydney | Melbourne | Brisbane | Adelaide | Perth | Hobart | Darwin

Other Formats:

Comma delimited format used in spreadsheet applications
http://www.bom.gov.au/fwo/IDQ60901/IDQ60901.95591.axf

JavaScript Object Notation format (JSON) in row-major order
http://www.bom.gov.au/fwo/IDQ60901/IDQ60901.95591.json